Time;durP1;ratioP1;P1;durP2;ratioP2;P2;SDS_P1;SDS_P2;PMS_P1;PMS_P2;Temp;Humidity;BMP_temperature;BMP_pressure;BME280_temperature;BME280_humidity;BME280_pressure;Samples;Min_cycle;Max_cycle;Signal;HPM_P1;HPM_P2
2022/09/18 00:01:39;;;;;;;1;0.5;;;;;;;;;;;;;
2022/09/18 00:04:05;;;;;;;0.5;0.5;;;;;;;;;;;;;
2022/09/18 00:06:30;;;;;;;0.7;0.5;;;;;;;;;;;;;
2022/09/18 00:08:57;;;;;;;1.3;0.5;;;;;;;;;;;;;
2022/09/18 00:11:23;;;;;;;1;0.3;;;;;;;;;;;;;
2022/09/18 00:13:47;;;;;;;0.8;0.4;;;;;;;;;;;;;
2022/09/18 00:16:12;;;;;;;0.7;0.7;;;;;;;;;;;;;
2022/09/18 00:18:44;;;;;;;0.5;0.5;;;;;;;;;;;;;
2022/09/18 00:21:10;;;;;;;0.5;0.5;;;;;;;;;;;;;
2022/09/18 00:23:35;;;;;;;0.4;0.4;;;;;;;;;;;;;
2022/09/18 00:26:01;;;;;;;0.6;0.5;;;;;;;;;;;;;
2022/09/18 00:28:26;;;;;;;0.5;0.5;;;;;;;;;;;;;
2022/09/18 00:30:52;;;;;;;0.9;0.6;;;;;;;;;;;;;
2022/09/18 00:33:17;;;;;;;0.5;0.4;;;;;;;;;;;;;
2022/09/18 00:35:43;;;;;;;0.4;0.4;;;;;;;;;;;;;
2022/09/18 00:38:07;;;;;;;0.2;0.2;;;;;;;;;;;;;
2022/09/18 00:40:32;;;;;;;1.3;0.4;;;;;;;;;;;;;
2022/09/18 00:42:58;;;;;;;0.3;0.3;;;;;;;;;;;;;
2022/09/18 00:45:23;;;;;;;0.9;0.3;;;;;;;;;;;;;
2022/09/18 00:47:49;;;;;;;0.4;0.4;;;;;;;;;;;;;
2022/09/18 00:50:14;;;;;;;0.4;0.4;;;;;;;;;;;;;
2022/09/18 00:52:40;;;;;;;0.3;0.3;;;;;;;;;;;;;
2022/09/18 00:55:05;;;;;;;0.4;0.3;;;;;;;;;;;;;
2022/09/18 00:57:31;;;;;;;0.5;0.4;;;;;;;;;;;;;
2022/09/18 00:59:55;;;;;;;0.7;0.4;;;;;;;;;;;;;
2022/09/18 01:02:20;;;;;;;1.1;0.5;;;;;;;;;;;;;
2022/09/18 01:04:45;;;;;;;0.5;0.4;;;;;;;;;;;;;
2022/09/18 01:07:11;;;;;;;0.6;0.4;;;;;;;;;;;;;
2022/09/18 01:09:36;;;;;;;0.3;0.3;;;;;;;;;;;;;
2022/09/18 01:12:01;;;;;;;0.3;0.3;;;;;;;;;;;;;
2022/09/18 01:14:26;;;;;;;0.6;0.3;;;;;;;;;;;;;
2022/09/18 01:16:51;;;;;;;0.7;0.5;;;;;;;;;;;;;
2022/09/18 01:19:20;;;;;;;0.3;0.3;;;;;;;;;;;;;
2022/09/18 01:21:45;;;;;;;0.8;0.3;;;;;;;;;;;;;
2022/09/18 01:24:13;;;;;;;0.5;0.2;;;;;;;;;;;;;
2022/09/18 01:26:38;;;;;;;0.2;0.2;;;;;;;;;;;;;
2022/09/18 01:29:03;;;;;;;0.7;0.3;;;;;;;;;;;;;
2022/09/18 01:31:29;;;;;;;0.4;0.4;;;;;;;;;;;;;
2022/09/18 01:33:54;;;;;;;0.3;0.3;;;;;;;;;;;;;
2022/09/18 01:36:19;;;;;;;0.4;0.4;;;;;;;;;;;;;
2022/09/18 01:38:44;;;;;;;0.4;0.4;;;;;;;;;;;;;
2022/09/18 01:41:09;;;;;;;0.4;0.4;;;;;;;;;;;;;
2022/09/18 01:43:37;;;;;;;0.7;0.6;;;;;;;;;;;;;
2022/09/18 01:46:03;;;;;;;0.4;0.4;;;;;;;;;;;;;
2022/09/18 01:48:38;;;;;;;0.7;0.7;;;;;;;;;;;;;
2022/09/18 01:51:03;;;;;;;0.6;0.4;;;;;;;;;;;;;
2022/09/18 01:53:28;;;;;;;0.4;0.4;;;;;;;;;;;;;
2022/09/18 01:55:54;;;;;;;1;0.3;;;;;;;;;;;;;
2022/09/18 01:58:19;;;;;;;0.4;0.4;;;;;;;;;;;;;
2022/09/18 02:00:46;;;;;;;1;0.5;;;;;;;;;;;;;
2022/09/18 02:03:11;;;;;;;0.9;0.5;;;;;;;;;;;;;
2022/09/18 02:05:37;;;;;;;0.5;0.4;;;;;;;;;;;;;
2022/09/18 02:08:02;;;;;;;0.8;0.3;;;;;;;;;;;;;
2022/09/18 02:10:29;;;;;;;0.3;0.3;;;;;;;;;;;;;
2022/09/18 02:12:55;;;;;;;1.8;0.5;;;;;;;;;;;;;
2022/09/18 02:15:21;;;;;;;0.6;0.5;;;;;;;;;;;;;
2022/09/18 02:17:46;;;;;;;0.9;0.6;;;;;;;;;;;;;
2022/09/18 02:20:13;;;;;;;1.5;0.5;;;;;;;;;;;;;
2022/09/18 02:22:38;;;;;;;0.6;0.5;;;;;;;;;;;;;
2022/09/18 02:25:03;;;;;;;0.9;0.5;;;;;;;;;;;;;
2022/09/18 02:27:30;;;;;;;0.6;0.4;;;;;;;;;;;;;
2022/09/18 02:29:55;;;;;;;1.6;0.7;;;;;;;;;;;;;
2022/09/18 02:32:20;;;;;;;0.5;0.5;;;;;;;;;;;;;
2022/09/18 02:34:45;;;;;;;0.8;0.7;;;;;;;;;;;;;
2022/09/18 02:37:11;;;;;;;0.5;0.5;;;;;;;;;;;;;
2022/09/18 02:39:36;;;;;;;0.9;0.5;;;;;;;;;;;;;
2022/09/18 02:42:01;;;;;;;0.4;0.4;;;;;;;;;;;;;
2022/09/18 02:44:26;;;;;;;0.5;0.5;;;;;;;;;;;;;
2022/09/18 02:46:52;;;;;;;1.1;0.5;;;;;;;;;;;;;
2022/09/18 02:49:17;;;;;;;0.8;0.5;;;;;;;;;;;;;
2022/09/18 02:51:42;;;;;;;1.2;0.6;;;;;;;;;;;;;
2022/09/18 02:54:08;;;;;;;0.5;0.5;;;;;;;;;;;;;
2022/09/18 02:56:33;;;;;;;0.7;0.6;;;;;;;;;;;;;
2022/09/18 02:58:58;;;;;;;0.6;0.6;;;;;;;;;;;;;
2022/09/18 03:01:23;;;;;;;1.3;0.8;;;;;;;;;;;;;
2022/09/18 03:03:50;;;;;;;0.6;0.6;;;;;;;;;;;;;
2022/09/18 03:06:15;;;;;;;0.7;0.7;;;;;;;;;;;;;
2022/09/18 03:08:40;;;;;;;0.6;0.6;;;;;;;;;;;;;
2022/09/18 03:11:05;;;;;;;0.6;0.6;;;;;;;;;;;;;
2022/09/18 03:13:30;;;;;;;0.5;0.5;;;;;;;;;;;;;
2022/09/18 03:15:58;;;;;;;0.7;0.7;;;;;;;;;;;;;
2022/09/18 03:18:23;;;;;;;0.7;0.7;;;;;;;;;;;;;
2022/09/18 03:20:48;;;;;;;0.9;0.5;;;;;;;;;;;;;
2022/09/18 03:23:13;;;;;;;0.9;0.8;;;;;;;;;;;;;
2022/09/18 03:25:38;;;;;;;0.7;0.6;;;;;;;;;;;;;
2022/09/18 03:28:04;;;;;;;1.3;0.5;;;;;;;;;;;;;
2022/09/18 03:30:29;;;;;;;0.5;0.5;;;;;;;;;;;;;
2022/09/18 03:32:54;;;;;;;0.4;0.4;;;;;;;;;;;;;
2022/09/18 03:35:22;;;;;;;0.7;0.4;;;;;;;;;;;;;
2022/09/18 03:37:47;;;;;;;0.4;0.4;;;;;;;;;;;;;
2022/09/18 03:40:12;;;;;;;1.6;0.8;;;;;;;;;;;;;
2022/09/18 03:42:39;;;;;;;0.8;0.5;;;;;;;;;;;;;
2022/09/18 03:45:04;;;;;;;1;0.6;;;;;;;;;;;;;
2022/09/18 03:47:31;;;;;;;0.9;0.4;;;;;;;;;;;;;
2022/09/18 03:49:56;;;;;;;0.8;0.5;;;;;;;;;;;;;
2022/09/18 03:52:21;;;;;;;0.8;0.4;;;;;;;;;;;;;
2022/09/18 03:54:47;;;;;;;0.8;0.5;;;;;;;;;;;;;
2022/09/18 03:57:12;;;;;;;0.9;0.6;;;;;;;;;;;;;
2022/09/18 03:59:37;;;;;;;0.5;0.5;;;;;;;;;;;;;
2022/09/18 04:02:35;;;;;;;0.4;0.4;;;;;;;8.25;93.98145;937.7033;;;;
2022/09/18 04:05:03;;;;;;;0.6;0.6;;;;;;;8.31;93.95117;937.8218;;;;
2022/09/18 04:07:28;;;;;;;0.9;0.6;;;;;;;8.37;93.98438;937.8699;;;;
2022/09/18 04:09:56;;;;;;;0.9;0.5;;;;;;;8.26;94.15332;937.8169;;;;
2022/09/18 04:12:21;;;;;;;0.7;0.7;;;;;;;8.26;94.1084;937.8367;;;;
2022/09/18 04:14:48;;;;;;;0.5;0.5;;;;;;;8.33;94.15625;937.8133;;;;
2022/09/18 04:17:14;;;;;;;2;0.8;;;;;;;8.47;94.13086;937.6647;;;;
2022/09/18 04:19:39;;;;;;;1.6;0.9;;;;;;;8.45;92.9248;937.7097;;;;
2022/09/18 04:22:07;;;;;;;1.1;1;;;;;;;8.44;92.51172;937.734;;;;
2022/09/18 04:24:34;;;;;;;0.8;0.8;;;;;;;8.49;92.50977;937.8142;;;;
2022/09/18 04:26:58;;;;;;;0.9;0.9;;;;;;;8.5;92.51172;937.7762;;;;
2022/09/18 04:29:26;;;;;;;1;0.8;;;;;;;8.52;92.49512;937.7718;;;;
2022/09/18 04:31:51;;;;;;;1;0.9;;;;;;;8.55;92.50098;937.6525;;;;
2022/09/18 04:34:20;;;;;;;1.9;1.8;;;;;;;8.43;93.77051;937.7205;;;;
2022/09/18 04:36:45;;;;;;;1.1;1;;;;;;;8.24;94.93359;937.7873;;;;
2022/09/18 04:39:13;;;;;;;0.5;0.4;;;;;;;8.08;95.30566;937.834;;;;
2022/09/18 04:41:45;;;;;;;0.8;0.4;;;;;;;8.08;94.86523;937.7589;;;;
2022/09/18 04:44:09;;;;;;;0.7;0.7;;;;;;;8.21;94.98438;937.7621;;;;
2022/09/18 04:46:37;;;;;;;0.8;0.8;;;;;;;8.31;94.96094;937.7813;;;;
2022/09/18 04:49:07;;;;;;;0.9;0.7;;;;;;;8.38;94.34961;937.8223;;;;
2022/09/18 04:51:32;;;;;;;0.5;0.5;;;;;;;8.34;94.05762;937.8376;;;;
2022/09/18 04:54:02;;;;;;;1.1;0.4;;;;;;;8.37;94.3252;937.8967;;;;
2022/09/18 04:56:32;;;;;;;0.5;0.5;;;;;;;8.4;94.45801;937.9235;;;;
2022/09/18 04:58:58;;;;;;;1.1;0.5;;;;;;;8.29;93.62793;937.9666;;;;
2022/09/18 05:01:28;;;;;;;0.9;0.8;;;;;;;8.34;94.36426;938.0693;;;;
2022/09/18 05:03:53;;;;;;;0.5;0.5;;;;;;;8.37;94.0293;938.0206;;;;
2022/09/18 05:06:23;;;;;;;0.7;0.7;;;;;;;8.39;94.35352;937.9844;;;;
2022/09/18 05:08:48;;;;;;;1;0.9;;;;;;;8.42;94.03027;937.9599;;;;
2022/09/18 05:11:19;;;;;;;0.6;0.6;;;;;;;8.42;93.79102;937.9503;;;;
2022/09/18 05:13:55;;;;;;;0.9;0.9;;;;;;;8.42;93.7002;937.9186;;;;
2022/09/18 05:16:20;;;;;;;0.6;0.6;;;;;;;8.22;94.77051;938.0129;;;;
2022/09/18 05:18:48;;;;;;;0.8;0.7;;;;;;;8.24;94.8877;938.0506;;;;
2022/09/18 05:21:13;;;;;;;0.7;0.7;;;;;;;8.35;94.82324;938.1608;;;;
2022/09/18 05:23:41;;;;;;;0.7;0.7;;;;;;;8.44;94.39941;938.2316;;;;
2022/09/18 05:26:05;;;;;;;1;0.8;;;;;;;8.46;94.54883;938.1375;;;;
2022/09/18 05:28:32;;;;;;;0.6;0.6;;;;;;;8.56;93.88965;938.1525;;;;
2022/09/18 05:30:57;;;;;;;0.7;0.7;;;;;;;8.62;93.6416;938.1365;;;;
2022/09/18 05:33:23;;;;;;;0.9;0.9;;;;;;;8.58;94.04297;938.0688;;;;
2022/09/18 05:35:48;;;;;;;0.7;0.7;;;;;;;8.61;94.10742;938.0832;;;;
2022/09/18 05:38:18;;;;;;;1.2;1.1;;;;;;;8.58;94.66797;938.0236;;;;
2022/09/18 05:40:43;;;;;;;0.9;0.8;;;;;;;8.57;94.18848;938.0092;;;;
2022/09/18 05:43:10;;;;;;;1.1;1;;;;;;;8.61;94.07129;937.995;;;;
2022/09/18 05:45:36;;;;;;;0.9;0.9;;;;;;;8.59;93.93164;937.9436;;;;
2022/09/18 05:54:24;;;;;;;1.1;1;;;;;;;8.57;93.5752;937.9409;;;;
2022/09/18 05:56:49;;;;;;;1.1;0.8;;;;;;;8.56;94.13965;937.9359;;;;
2022/09/18 05:59:17;;;;;;;1.2;1;;;;;;;8.54;94.3877;938.0848;;;;
2022/09/18 06:01:42;;;;;;;3.2;1.1;;;;;;;8.62;94.8125;938.1071;;;;
2022/09/18 06:04:09;;;;;;;1.3;1.2;;;;;;;8.68;94.48535;938.0454;;;;
2022/09/18 06:06:35;;;;;;;1.2;1.1;;;;;;;8.77;94.61719;938.1221;;;;
2022/09/18 06:09:02;;;;;;;1.5;1.4;;;;;;;8.79;93.40625;938.1264;;;;
2022/09/18 06:11:28;;;;;;;1.3;1.2;;;;;;;8.72;92.32324;938.0634;;;;
2022/09/18 06:13:56;;;;;;;1.4;1.3;;;;;;;8.81;92.58008;938.0628;;;;
2022/09/18 06:16:29;;;;;;;3.9;3;;;;;;;8.64;92.94043;938.1526;;;;
2022/09/18 06:19:00;;;;;;;1.3;1;;;;;;;8.59;93.19238;938.0031;;;;
2022/09/18 06:21:31;;;;;;;6.7;5.3;;;;;;;8.63;93.96191;938.1636;;;;
2022/09/18 06:23:56;;;;;;;2;1.8;;;;;;;8.54;93.96484;938.1848;;;;
2022/09/18 06:26:22;;;;;;;1.3;0.8;;;;;;;8.61;93.12793;938.2527;;;;
2022/09/18 06:28:50;;;;;;;0.6;0.6;;;;;;;8.73;93.1084;938.2137;;;;
2022/09/18 06:31:43;;;;;;;1.7;1.3;;;;;;;8.85;92.11133;938.1;;;;
2022/09/18 06:34:11;;;;;;;1;0.8;;;;;;;8.99;90.76367;938.1473;;;;
2022/09/18 06:36:36;;;;;;;1.1;1;;;;;;;9.05;90.65234;938.1445;;;;
2022/09/18 06:39:06;;;;;;;1.1;1;;;;;;;9.05;92.00586;938.1008;;;;
2022/09/18 06:41:31;;;;;;;0.9;0.8;;;;;;;9.15;91.71973;937.9807;;;;
2022/09/18 06:44:03;;;;;;;1.1;0.8;;;;;;;9.3;91.92383;938.0316;;;;
2022/09/18 06:46:36;;;;;;;0.6;0.6;;;;;;;9.36;91.59375;938.1253;;;;
2022/09/18 06:49:01;;;;;;;1.5;0.8;;;;;;;9.42;90.81934;938.1177;;;;
2022/09/18 06:51:27;;;;;;;3;1.8;;;;;;;9.38;91.56348;938.0724;;;;
2022/09/18 06:53:52;;;;;;;3;2.1;;;;;;;9.31;91.58398;938.0588;;;;
2022/09/18 06:56:23;;;;;;;7.8;5;;;;;;;9.43;91.80469;937.9908;;;;
2022/09/18 06:58:50;;;;;;;2.3;2.1;;;;;;;9.38;92.40625;938.0056;;;;
2022/09/18 07:01:15;;;;;;;2.3;2.1;;;;;;;9.37;90.71875;937.9666;;;;
2022/09/18 07:03:46;;;;;;;1.7;1.6;;;;;;;9.35;92.20508;937.9838;;;;
2022/09/18 07:06:16;;;;;;;2.3;2;;;;;;;9.44;92.04395;938.0481;;;;
2022/09/18 07:08:42;;;;;;;3.6;2.8;;;;;;;9.45;92.85449;938.1475;;;;
2022/09/18 07:11:12;;;;;;;1.9;1.6;;;;;;;9.58;90.73047;938.1842;;;;
2022/09/18 07:13:37;;;;;;;2.2;1.5;;;;;;;9.65;90.64063;938.2148;;;;
2022/09/18 07:16:01;;;;;;;2.8;1.6;;;;;;;9.69;91.07031;938.3194;;;;
2022/09/18 07:18:29;;;;;;;1.9;1.8;;;;;;;9.67;91.3623;938.2405;;;;
2022/09/18 07:20:54;;;;;;;16.4;13.4;;;;;;;9.77;90.74512;938.2314;;;;
2022/09/18 07:23:23;;;;;;;3.9;3.5;;;;;;;9.8;89.47461;938.1602;;;;
2022/09/18 07:25:47;;;;;;;7.9;7.3;;;;;;;9.84;87.6709;938.1085;;;;
2022/09/18 07:28:13;;;;;;;36.7;34;;;;;;;9.68;89.00781;938.0291;;;;
2022/09/18 07:30:39;;;;;;;3.4;3.1;;;;;;;9.87;90.49414;937.9991;;;;
2022/09/18 07:33:06;;;;;;;7.4;6.9;;;;;;;9.88;89.89063;938.0008;;;;
2022/09/18 07:35:32;;;;;;;5.5;4.9;;;;;;;10.06;89.02734;938.0571;;;;
2022/09/18 07:38:00;;;;;;;2.1;1.9;;;;;;;10.31;89.0332;937.9998;;;;
2022/09/18 07:40:25;;;;;;;0.9;0.9;;;;;;;10.41;85.62988;938.0294;;;;
2022/09/18 07:42:50;;;;;;;1;0.9;;;;;;;10.49;83.78613;938.0926;;;;
2022/09/18 07:45:35;;;;;;;0.8;0.8;;;;;;;10.57;82.16797;938.1085;;;;
2022/09/18 07:48:00;;;;;;;1.6;1;;;;;;;10.75;84.21094;938.2775;;;;
2022/09/18 07:50:25;;;;;;;3.2;2.6;;;;;;;10.88;84.19141;938.1219;;;;
2022/09/18 07:52:53;;;;;;;1;0.9;;;;;;;10.42;82.81152;938.0999;;;;
2022/09/18 07:55:19;;;;;;;0.7;0.7;;;;;;;10.53;84.35254;938.089;;;;
2022/09/18 07:58:28;;;;;;;1.4;1.3;;;;;;;10.38;84.97363;938.1031;;;;
2022/09/18 08:00:56;;;;;;;78.4;37.3;;;;;;;10.41;83.63184;938.0664;;;;
2022/09/18 08:03:21;;;;;;;64.2;39.4;;;;;;;10.66;85.34863;938.1166;;;;
2022/09/18 08:05:46;;;;;;;5.1;3.7;;;;;;;10.79;84.91602;938.1425;;;;
2022/09/18 08:08:16;;;;;;;2.2;1.3;;;;;;;10.72;85.76074;938.1738;;;;
2022/09/18 08:10:42;;;;;;;1.9;1.8;;;;;;;10.65;86.84277;938.2137;;;;
2022/09/18 08:13:06;;;;;;;1.7;1;;;;;;;10.52;82.46582;938.1262;;;;
2022/09/18 08:21:41;;;;;;;1.3;1.2;;;;;;;10.26;86.99121;938.2428;;;;
2022/09/18 08:24:09;;;;;;;2.3;1.9;;;;;;;10.45;85.3623;938.1805;;;;
2022/09/18 08:26:37;;;;;;;1.3;0.8;;;;;;;10.67;82.87207;938.1924;;;;
2022/09/18 08:28:59;;;;;;;1.8;1.3;;;;;;;10.35;84.26074;938.231;;;;
2022/09/18 08:31:27;;;;;;;2.5;1.2;;;;;;;10.21;83.79883;938.0983;;;;
2022/09/18 08:33:52;;;;;;;1.5;0.8;;;;;;;10.13;84.83301;938.2249;;;;
2022/09/18 08:36:20;;;;;;;2.6;2;;;;;;;10.53;85.67773;938.2537;;;;
2022/09/18 08:38:52;;;;;;;4.3;3;;;;;;;10.75;85.1377;938.3397;;;;
2022/09/18 08:41:17;;;;;;;1.4;1.2;;;;;;;10.73;82.08594;938.1906;;;;
2022/09/18 08:43:44;;;;;;;1.5;1.2;;;;;;;10.55;83.18066;938.2372;;;;
2022/09/18 08:46:10;;;;;;;2.6;1.1;;;;;;;10.57;81.68652;938.2493;;;;
2022/09/18 08:48:35;;;;;;;2.4;1.8;;;;;;;10.64;84.11133;938.3236;;;;
2022/09/18 08:51:00;;;;;;;1.8;1.2;;;;;;;10.56;83.60449;938.3791;;;;
2022/09/18 08:53:25;;;;;;;1.5;1.2;;;;;;;10.77;81.77148;938.3215;;;;
2022/09/18 08:55:53;;;;;;;4.3;2.7;;;;;;;10.67;80.80469;938.3127;;;;
2022/09/18 08:58:18;;;;;;;2.2;1.6;;;;;;;10.5;73.67285;938.1708;;;;
2022/09/18 09:00:43;;;;;;;4.1;2.4;;;;;;;10.69;77.51855;938.2244;;;;
2022/09/18 09:03:15;;;;;;;2.6;1.8;;;;;;;10.99;80.20215;938.3092;;;;
2022/09/18 09:05:46;;;;;;;2.1;1.4;;;;;;;11.31;79.59766;938.2355;;;;
2022/09/18 09:08:11;;;;;;;1.7;1.2;;;;;;;11.36;79.60547;938.3013;;;;
2022/09/18 09:10:36;;;;;;;0.9;0.9;;;;;;;11.5;80.2041;938.2417;;;;
2022/09/18 09:13:01;;;;;;;1.7;1.2;;;;;;;11.53;82.97852;938.3647;;;;
2022/09/18 09:15:28;;;;;;;1.4;1.3;;;;;;;11.75;80.29688;938.3431;;;;
2022/09/18 09:17:53;;;;;;;3.6;2;;;;;;;11.74;81.9082;938.3806;;;;
2022/09/18 09:20:21;;;;;;;2.9;2.3;;;;;;;11.58;82.86328;938.2861;;;;
2022/09/18 09:22:46;;;;;;;2.2;1.7;;;;;;;11.35;77.23633;938.3801;;;;
2022/09/18 09:25:16;;;;;;;1.3;1.1;;;;;;;11.55;79.23047;938.3664;;;;
2022/09/18 09:27:40;;;;;;;1.8;1.3;;;;;;;11.87;78.06445;938.3411;;;;
2022/09/18 09:30:06;;;;;;;0.7;0.5;;;;;;;11.81;66.77148;938.204;;;;
2022/09/18 09:32:31;;;;;;;0.8;0.4;;;;;;;11.88;73.33398;938.3308;;;;
2022/09/18 09:34:56;;;;;;;1.4;0.6;;;;;;;11.37;74.38086;938.3444;;;;
2022/09/18 09:37:22;;;;;;;0.7;0.7;;;;;;;11.23;69.7373;938.2949;;;;
2022/09/18 09:39:51;;;;;;;0.8;0.5;;;;;;;11.59;71.05371;938.3061;;;;
2022/09/18 09:42:15;;;;;;;0.7;0.7;;;;;;;11.71;67.36328;938.295;;;;
2022/09/18 09:44:40;;;;;;;1.5;0.9;;;;;;;11.75;72.84277;938.347;;;;
2022/09/18 09:47:05;;;;;;;2.7;1.1;;;;;;;11.68;72.17871;938.3164;;;;
2022/09/18 09:49:33;;;;;;;2;1.3;;;;;;;11.76;71.59473;938.2067;;;;
2022/09/18 09:51:59;;;;;;;1.3;0.8;;;;;;;11.7;73.61426;938.0661;;;;
2022/09/18 09:54:24;;;;;;;2.6;1.1;;;;;;;11.24;75.10254;938.0438;;;;
2022/09/18 09:56:50;;;;;;;1;0.8;;;;;;;11.4;76.04492;938.1923;;;;
2022/09/18 09:59:14;;;;;;;1.6;0.8;;;;;;;11.87;74.05371;938.1887;;;;
2022/09/18 10:01:44;;;;;;;1.6;0.9;;;;;;;11.78;70.24805;938.0823;;;;
2022/09/18 10:04:10;;;;;;;1.7;1.1;;;;;;;11.51;76.74902;938.162;;;;
2022/09/18 10:06:41;;;;;;;1.4;1;;;;;;;11.63;74.8252;938.2372;;;;
2022/09/18 10:09:10;;;;;;;1;0.9;;;;;;;11.83;71.28809;938.1917;;;;
2022/09/18 10:11:36;;;;;;;0.9;0.8;;;;;;;12.07;67.56836;938.1163;;;;
2022/09/18 10:14:01;;;;;;;1.6;0.9;;;;;;;12.19;69.46777;938.1526;;;;
2022/09/18 10:16:32;;;;;;;0.7;0.7;;;;;;;12.48;71.13086;938.181;;;;
2022/09/18 10:18:56;;;;;;;1;0.6;;;;;;;12.59;69.8291;938.2051;;;;
2022/09/18 10:21:21;;;;;;;1.3;0.8;;;;;;;13.02;67.40625;938.2126;;;;
2022/09/18 10:23:48;;;;;;;1;0.5;;;;;;;13.12;63.94141;938.2693;;;;
2022/09/18 10:26:13;;;;;;;0.6;0.5;;;;;;;13.53;62.86523;938.2138;;;;
2022/09/18 10:28:39;;;;;;;1;0.7;;;;;;;13.51;63.43652;938.2059;;;;
2022/09/18 10:31:10;;;;;;;1.1;0.7;;;;;;;13.77;62.16211;938.1575;;;;
2022/09/18 10:33:34;;;;;;;2.5;0.7;;;;;;;14;62.98926;938.1322;;;;
2022/09/18 10:36:03;;;;;;;2;1;;;;;;;14.24;61.25;938.2438;;;;
2022/09/18 10:38:29;;;;;;;2.2;1.6;;;;;;;14.67;62.01367;938.2288;;;;
2022/09/18 10:40:56;;;;;;;1.5;1.2;;;;;;;14.69;57.92383;938.1685;;;;
2022/09/18 10:43:21;;;;;;;1.2;0.7;;;;;;;14.14;59.35938;938.123;;;;
2022/09/18 10:45:51;;;;;;;1.3;1.2;;;;;;;13.71;63.18945;938.1625;;;;
2022/09/18 10:48:16;;;;;;;1;0.7;;;;;;;13.86;52.84375;938.1007;;;;
2022/09/18 10:50:43;;;;;;;0.4;0.4;;;;;;;13.97;57.09277;938.0842;;;;
2022/09/18 10:53:08;;;;;;;1;0.6;;;;;;;13.85;54.99512;938.1207;;;;
2022/09/18 10:55:36;;;;;;;0.8;0.6;;;;;;;13.68;60.25195;937.9777;;;;
2022/09/18 10:58:01;;;;;;;0.7;0.5;;;;;;;13.53;56.29883;938.125;;;;
2022/09/18 11:00:28;;;;;;;1.2;0.7;;;;;;;13.6;57.6543;938.0961;;;;
2022/09/18 11:02:51;;;;;;;0.5;0.5;;;;;;;13.79;56.9082;938.0909;;;;
2022/09/18 11:05:17;;;;;;;0.6;0.6;;;;;;;13.92;55.88965;938.082;;;;
2022/09/18 11:07:45;;;;;;;1.1;0.6;;;;;;;14.66;55.76465;938.0228;;;;
2022/09/18 11:10:15;;;;;;;1.9;0.4;;;;;;;14.8;54.12207;937.9986;;;;
2022/09/18 11:12:40;;;;;;;2.3;0.6;;;;;;;15;49.31348;937.9588;;;;
2022/09/18 11:15:08;;;;;;;0.4;0.4;;;;;;;15.04;52.80273;937.9436;;;;
2022/09/18 11:17:34;;;;;;;0.6;0.6;;;;;;;15.96;52.60156;937.8763;;;;
2022/09/18 11:20:00;;;;;;;1.7;0.7;;;;;;;16.76;51.20313;937.8414;;;;
2022/09/18 11:22:31;;;;;;;1.9;0.5;;;;;;;17.34;48.89453;937.8538;;;;
2022/09/18 11:24:59;;;;;;;0.7;0.5;;;;;;;17.91;46.87891;937.81;;;;
2022/09/18 11:27:26;;;;;;;0.4;0.4;;;;;;;18.29;42.18848;937.7924;;;;
2022/09/18 11:29:50;;;;;;;0.4;0.4;;;;;;;17.33;43.66309;937.7276;;;;
2022/09/18 11:32:17;;;;;;;1.1;0.5;;;;;;;17.44;47.29297;937.7525;;;;
2022/09/18 11:34:42;;;;;;;0.7;0.4;;;;;;;17.41;43.03223;937.7609;;;;
2022/09/18 11:37:09;;;;;;;0.9;0.4;;;;;;;16.68;43.53906;937.6962;;;;
2022/09/18 11:39:35;;;;;;;1.5;0.6;;;;;;;16.4;49.40234;937.717;;;;
2022/09/18 11:42:00;;;;;;;0.6;0.4;;;;;;;16.25;45.27832;937.752;;;;
2022/09/18 11:44:30;;;;;;;2.5;1;;;;;;;16.71;48.61523;937.6434;;;;
2022/09/18 11:46:55;;;;;;;3.2;0.9;;;;;;;17.13;43.31836;937.6841;;;;
2022/09/18 11:49:21;;;;;;;2.9;1.3;;;;;;;17.16;45.09473;937.6699;;;;
2022/09/18 11:51:46;;;;;;;1.9;1;;;;;;;17.56;45.89063;937.5869;;;;
2022/09/18 11:54:11;;;;;;;2.1;0.8;;;;;;;17.96;45.60742;937.5165;;;;
2022/09/18 11:56:36;;;;;;;4.6;0.7;;;;;;;17.62;46.99902;937.6287;;;;
2022/09/18 11:59:01;;;;;;;0.9;0.6;;;;;;;17.95;43.67773;937.4755;;;;
2022/09/18 12:01:26;;;;;;;1.4;0.7;;;;;;;17.4;44.33008;937.4962;;;;
2022/09/18 12:03:52;;;;;;;1;0.5;;;;;;;16.78;45.99316;937.5122;;;;
2022/09/18 12:06:17;;;;;;;0.6;0.5;;;;;;;16.82;46.70508;937.4716;;;;
2022/09/18 12:08:42;;;;;;;1.4;0.4;;;;;;;17.81;43.26953;937.4991;;;;
2022/09/18 12:11:08;;;;;;;1.1;0.5;;;;;;;17.88;44.82031;937.4906;;;;
2022/09/18 12:13:32;;;;;;;1.2;0.5;;;;;;;17.94;44.98926;937.4387;;;;
2022/09/18 12:15:59;;;;;;;0.3;0.3;;;;;;;17.66;44.13574;937.4405;;;;
2022/09/18 12:18:27;;;;;;;1;0.6;;;;;;;17.85;46.00098;937.4421;;;;
2022/09/18 12:20:52;;;;;;;1.9;0.6;;;;;;;18.13;42.73145;937.3884;;;;
2022/09/18 12:23:21;;;;;;;0.4;0.3;;;;;;;18.3;43.42188;937.3182;;;;
2022/09/18 12:25:46;;;;;;;1.1;0.4;;;;;;;17.92;42.53711;937.2933;;;;
2022/09/18 12:28:12;;;;;;;0.5;0.5;;;;;;;17.59;44.07129;937.3149;;;;
2022/09/18 12:30:38;;;;;;;1.3;0.6;;;;;;;17.48;46.79785;937.2503;;;;
2022/09/18 12:33:06;;;;;;;1.6;0.4;;;;;;;17.51;45.36328;937.2231;;;;
2022/09/18 12:35:31;;;;;;;0.3;0.3;;;;;;;17.96;42.71484;937.2072;;;;
2022/09/18 12:37:56;;;;;;;1.5;0.5;;;;;;;18.49;43.06836;937.1481;;;;
2022/09/18 12:40:23;;;;;;;0.4;0.3;;;;;;;18.16;41.71094;937.0823;;;;
2022/09/18 12:42:47;;;;;;;1.4;0.5;;;;;;;18.1;40.40527;937.024;;;;
2022/09/18 12:45:12;;;;;;;0.5;0.4;;;;;;;18.71;41.2168;936.9767;;;;
2022/09/18 12:47:39;;;;;;;1.2;0.4;;;;;;;19.17;43.21582;936.8995;;;;
2022/09/18 12:50:04;;;;;;;0.9;0.3;;;;;;;20;40.49707;936.8354;;;;
2022/09/18 12:52:29;;;;;;;0.9;0.4;;;;;;;20.92;39.51855;936.871;;;;
2022/09/18 12:54:55;;;;;;;1.2;0.5;;;;;;;20.11;38.41797;936.8633;;;;
2022/09/18 12:57:24;;;;;;;0.6;0.5;;;;;;;18.33;41.93652;936.7241;;;;
2022/09/18 12:59:53;;;;;;;0.8;0.6;;;;;;;18.84;46;936.6825;;;;
2022/09/18 13:02:18;;;;;;;2.8;0.4;;;;;;;21.51;39.65332;936.7031;;;;
2022/09/18 13:04:43;;;;;;;0.8;0.6;;;;;;;23.73;33.83887;936.7219;;;;
2022/09/18 13:07:09;;;;;;;0.9;0.4;;;;;;;23.87;34.68457;936.6281;;;;
2022/09/18 13:09:34;;;;;;;0.7;0.4;;;;;;;22.61;38.8584;936.668;;;;
2022/09/18 13:12:00;;;;;;;1;0.4;;;;;;;22.44;36.55664;936.7134;;;;
2022/09/18 13:14:25;;;;;;;0.4;0.4;;;;;;;22.13;38.2666;936.6987;;;;
2022/09/18 13:16:50;;;;;;;0.7;0.4;;;;;;;23.06;37.48926;936.628;;;;
2022/09/18 13:19:16;;;;;;;0.8;0.4;;;;;;;23.65;37.13867;936.5146;;;;
2022/09/18 13:21:42;;;;;;;0.6;0.6;;;;;;;23.42;36.38965;936.375;;;;
2022/09/18 13:24:06;;;;;;;0.9;0.3;;;;;;;23.05;35.10254;936.4369;;;;
2022/09/18 13:26:33;;;;;;;0.4;0.4;;;;;;;23.48;35.74805;936.4442;;;;
2022/09/18 13:29:02;;;;;;;1.1;0.4;;;;;;;25.16;33.80469;936.4101;;;;
2022/09/18 13:32:00;;;;;;;1.2;0.6;;;;;;;24.1;34.97363;936.4033;;;;
2022/09/18 13:34:30;;;;;;;0.7;0.4;;;;;;;24.17;33.70703;936.4039;;;;
2022/09/18 13:36:55;;;;;;;0.9;0.5;;;;;;;25.09;32.86719;936.3745;;;;
2022/09/18 13:39:27;;;;;;;0.5;0.5;;;;;;;26.58;30.3252;936.3205;;;;
2022/09/18 13:41:52;;;;;;;0.4;0.3;;;;;;;26.22;31.50781;936.2289;;;;
2022/09/18 13:44:16;;;;;;;0.3;0.3;;;;;;;26.81;30.48242;936.2825;;;;
2022/09/18 13:46:43;;;;;;;0.9;0.5;;;;;;;25.41;30.06836;936.2322;;;;
2022/09/18 13:49:10;;;;;;;0.7;0.3;;;;;;;25.26;31.90039;936.1599;;;;
2022/09/18 13:51:36;;;;;;;1.2;0.4;;;;;;;25.6;30.16504;936.2062;;;;
2022/09/18 13:54:01;;;;;;;0.8;0.5;;;;;;;25.68;31.24512;936.1962;;;;
2022/09/18 13:56:26;;;;;;;0.3;0.3;;;;;;;24.46;32.37402;936.1766;;;;
2022/09/18 13:58:59;;;;;;;0.4;0.3;;;;;;;23.86;32.4834;935.9916;;;;
2022/09/18 14:01:24;;;;;;;0.6;0.4;;;;;;;21.66;35.5791;936.0734;;;;
2022/09/18 14:03:50;;;;;;;0.5;0.4;;;;;;;22.27;35.07715;936.0123;;;;
2022/09/18 14:06:15;;;;;;;0.5;0.4;;;;;;;22.53;35.40234;936.0168;;;;
2022/09/18 14:08:40;;;;;;;0.9;0.4;;;;;;;22.92;34.71582;935.8484;;;;
2022/09/18 14:11:07;;;;;;;1.4;1.1;;;;;;;22.32;35.80762;935.9083;;;;
2022/09/18 14:13:33;;;;;;;1.2;0.5;;;;;;;20.18;37.32813;935.9102;;;;
2022/09/18 14:15:58;;;;;;;0.7;0.5;;;;;;;20.24;40.14648;935.7034;;;;
2022/09/18 14:18:25;;;;;;;0.8;0.5;;;;;;;20.24;38.66309;935.7073;;;;
2022/09/18 14:20:53;;;;;;;0.6;0.6;;;;;;;19.62;44.50879;935.7494;;;;
2022/09/18 14:24:08;;;;;;;0.6;0.5;;;;;;;19.09;42.8252;935.7667;;;;
2022/09/18 14:26:36;;;;;;;1;0.4;;;;;;;19.06;43.4502;935.7209;;;;
2022/09/18 14:29:01;;;;;;;0.3;0.3;;;;;;;18.49;40.92871;935.8289;;;;
2022/09/18 14:31:26;;;;;;;0.6;0.3;;;;;;;18.26;42.23242;935.848;;;;
2022/09/18 14:33:51;;;;;;;2.5;0.5;;;;;;;18.18;46.38379;935.8794;;;;
2022/09/18 14:36:18;;;;;;;0.8;0.6;;;;;;;18.13;45.69336;935.8225;;;;
2022/09/18 14:38:43;;;;;;;1.1;0.6;;;;;;;17.77;41.43066;935.7271;;;;
2022/09/18 14:41:17;;;;;;;1.2;0.6;;;;;;;17.63;43.85449;935.7145;;;;
2022/09/18 14:43:39;;;;;;;1.9;0.9;;;;;;;17.77;45.31934;935.7786;;;;
2022/09/18 14:46:05;;;;;;;0.9;0.6;;;;;;;17.9;45.80957;935.6599;;;;
2022/09/18 14:48:30;;;;;;;0.5;0.5;;;;;;;18.09;43.11133;935.7622;;;;
2022/09/18 14:50:57;;;;;;;0.7;0.6;;;;;;;17.57;42.47949;935.6383;;;;
2022/09/18 14:53:23;;;;;;;0.7;0.5;;;;;;;17.28;41.03711;935.6528;;;;
2022/09/18 14:55:47;;;;;;;1;0.7;;;;;;;17;42.29688;935.5011;;;;
2022/09/18 14:58:14;;;;;;;0.8;0.6;;;;;;;16.93;48.37305;935.6674;;;;
2022/09/18 15:00:39;;;;;;;1.5;0.8;;;;;;;16.96;47.13574;935.6298;;;;
2022/09/18 15:03:03;;;;;;;1.4;0.6;;;;;;;17.07;42.12988;935.4742;;;;
2022/09/18 15:05:29;;;;;;;2;1.4;;;;;;;16.83;44.21582;935.4464;;;;
2022/09/18 15:07:57;;;;;;;1;0.9;;;;;;;16.86;49.07227;935.4394;;;;
2022/09/18 15:10:23;;;;;;;0.6;0.5;;;;;;;16.71;48.37305;935.38;;;;
2022/09/18 15:12:52;;;;;;;0.7;0.4;;;;;;;16.45;49.29199;935.3851;;;;
2022/09/18 15:15:17;;;;;;;0.6;0.6;;;;;;;16.39;49.91113;935.3134;;;;
2022/09/18 15:17:43;;;;;;;1.8;1.2;;;;;;;16.43;49.42969;935.3781;;;;
2022/09/18 15:20:13;;;;;;;1.3;0.5;;;;;;;16.48;49.28516;935.3901;;;;
2022/09/18 15:22:40;;;;;;;1.1;0.8;;;;;;;16.23;51.36328;935.411;;;;
2022/09/18 15:25:44;;;;;;;2;1.5;;;;;;;16.27;52.78906;935.5349;;;;
2022/09/18 15:28:09;;;;;;;1.6;1;;;;;;;16.03;53.47754;935.5675;;;;
2022/09/18 15:30:34;;;;;;;1;0.9;;;;;;;15.99;53.92285;935.4883;;;;
2022/09/18 15:32:59;;;;;;;1;0.9;;;;;;;16.02;55.12988;935.5025;;;;
2022/09/18 15:35:24;;;;;;;2.4;1;;;;;;;15.73;53.99512;935.4174;;;;
2022/09/18 15:37:54;;;;;;;3.1;2.2;;;;;;;15.53;55.86523;935.3281;;;;
2022/09/18 15:40:21;;;;;;;1.6;0.9;;;;;;;15.19;55.31348;935.3547;;;;
2022/09/18 15:42:50;;;;;;;2.1;0.9;;;;;;;15.27;57.11328;935.3267;;;;
2022/09/18 15:45:17;;;;;;;0.7;0.5;;;;;;;15.11;55.39551;935.2957;;;;
2022/09/18 15:47:47;;;;;;;1.6;0.9;;;;;;;14.81;55.33496;935.3411;;;;
2022/09/18 15:50:16;;;;;;;1.1;1;;;;;;;14.61;54.3291;935.2654;;;;
2022/09/18 15:52:46;;;;;;;1;0.9;;;;;;;14.7;56.20898;935.2798;;;;